sensor_id;sensor_type;location;lat;lon;timestamp;P1;durP1;ratioP1;P2;durP2;ratioP2
5880;SDS011;2966;52.598;10.928;2022-08-02T00:01:16;11.50;;;3.23;;
5880;SDS011;2966;52.598;10.928;2022-08-02T00:03:43;5.43;;;2.57;;
5880;SDS011;2966;52.598;10.928;2022-08-02T00:06:09;3.80;;;2.60;;
5880;SDS011;2966;52.598;10.928;2022-08-02T00:08:36;4.10;;;3.53;;
5880;SDS011;2966;52.598;10.928;2022-08-02T00:11:03;6.23;;;3.50;;
5880;SDS011;2966;52.598;10.928;2022-08-02T00:13:31;3.33;;;3.13;;
5880;SDS011;2966;52.598;10.928;2022-08-02T00:15:58;7.40;;;3.30;;
5880;SDS011;2966;52.598;10.928;2022-08-02T00:18:24;6.40;;;3.23;;
5880;SDS011;2966;52.598;10.928;2022-08-02T00:20:51;7.27;;;4.67;;
5880;SDS011;2966;52.598;10.928;2022-08-02T00:23:18;4.67;;;3.13;;
5880;SDS011;2966;52.598;10.928;2022-08-02T00:25:45;7.23;;;4.23;;
5880;SDS011;2966;52.598;10.928;2022-08-02T00:28:11;5.03;;;3.63;;
5880;SDS011;2966;52.598;10.928;2022-08-02T00:30:39;8.67;;;3.37;;
5880;SDS011;2966;52.598;10.928;2022-08-02T00:33:06;6.00;;;3.90;;
5880;SDS011;2966;52.598;10.928;2022-08-02T00:35:33;4.53;;;3.50;;
5880;SDS011;2966;52.598;10.928;2022-08-02T00:38:00;7.13;;;3.90;;
5880;SDS011;2966;52.598;10.928;2022-08-02T00:40:28;3.97;;;3.03;;
5880;SDS011;2966;52.598;10.928;2022-08-02T00:43:01;3.70;;;3.30;;
5880;SDS011;2966;52.598;10.928;2022-08-02T00:45:31;7.30;;;3.90;;
5880;SDS011;2966;52.598;10.928;2022-08-02T00:47:59;6.23;;;3.40;;
5880;SDS011;2966;52.598;10.928;2022-08-02T00:50:27;8.10;;;4.10;;
5880;SDS011;2966;52.598;10.928;2022-08-02T00:52:54;4.50;;;3.30;;
5880;SDS011;2966;52.598;10.928;2022-08-02T00:55:21;6.77;;;4.17;;
5880;SDS011;2966;52.598;10.928;2022-08-02T00:57:48;5.13;;;3.30;;
5880;SDS011;2966;52.598;10.928;2022-08-02T01:00:15;5.83;;;3.40;;
5880;SDS011;2966;52.598;10.928;2022-08-02T01:02:42;5.47;;;4.10;;
5880;SDS011;2966;52.598;10.928;2022-08-02T01:05:11;12.90;;;3.30;;
5880;SDS011;2966;52.598;10.928;2022-08-02T01:07:37;6.97;;;3.90;;
5880;SDS011;2966;52.598;10.928;2022-08-02T01:10:05;3.50;;;3.20;;
5880;SDS011;2966;52.598;10.928;2022-08-02T01:12:32;9.97;;;4.07;;
5880;SDS011;2966;52.598;10.928;2022-08-02T01:15:00;4.77;;;4.27;;
5880;SDS011;2966;52.598;10.928;2022-08-02T01:17:33;4.47;;;4.00;;
5880;SDS011;2966;52.598;10.928;2022-08-02T01:20:04;7.17;;;3.60;;
5880;SDS011;2966;52.598;10.928;2022-08-02T01:22:53;6.67;;;3.80;;
5880;SDS011;2966;52.598;10.928;2022-08-02T01:25:40;4.07;;;3.53;;
5880;SDS011;2966;52.598;10.928;2022-08-02T01:28:25;8.30;;;3.80;;
5880;SDS011;2966;52.598;10.928;2022-08-02T01:30:59;6.53;;;4.10;;
5880;SDS011;2966;52.598;10.928;2022-08-02T01:33:31;6.27;;;3.30;;
5880;SDS011;2966;52.598;10.928;2022-08-02T01:36:03;7.17;;;4.23;;
5880;SDS011;2966;52.598;10.928;2022-08-02T01:38:34;7.80;;;3.27;;
5880;SDS011;2966;52.598;10.928;2022-08-02T01:41:05;4.20;;;3.40;;
5880;SDS011;2966;52.598;10.928;2022-08-02T01:43:35;6.53;;;4.70;;
5880;SDS011;2966;52.598;10.928;2022-08-02T01:46:05;4.70;;;3.20;;
5880;SDS011;2966;52.598;10.928;2022-08-02T01:48:33;5.20;;;2.80;;
5880;SDS011;2966;52.598;10.928;2022-08-02T01:51:00;3.40;;;3.03;;
5880;SDS011;2966;52.598;10.928;2022-08-02T01:53:29;6.17;;;3.90;;
5880;SDS011;2966;52.598;10.928;2022-08-02T01:55:57;10.53;;;3.50;;
5880;SDS011;2966;52.598;10.928;2022-08-02T01:58:26;9.63;;;3.50;;
5880;SDS011;2966;52.598;10.928;2022-08-02T02:00:57;6.50;;;4.10;;
5880;SDS011;2966;52.598;10.928;2022-08-02T02:03:26;3.50;;;3.20;;
5880;SDS011;2966;52.598;10.928;2022-08-02T02:05:55;4.63;;;4.23;;
5880;SDS011;2966;52.598;10.928;2022-08-02T02:08:25;4.60;;;3.33;;
5880;SDS011;2966;52.598;10.928;2022-08-02T02:10:54;4.00;;;3.70;;
5880;SDS011;2966;52.598;10.928;2022-08-02T02:13:22;5.30;;;4.33;;
5880;SDS011;2966;52.598;10.928;2022-08-02T02:15:51;4.93;;;4.53;;
5880;SDS011;2966;52.598;10.928;2022-08-02T02:18:20;3.70;;;3.33;;
5880;SDS011;2966;52.598;10.928;2022-08-02T02:20:49;7.57;;;3.93;;
5880;SDS011;2966;52.598;10.928;2022-08-02T02:23:17;6.73;;;3.40;;
5880;SDS011;2966;52.598;10.928;2022-08-02T02:25:43;4.57;;;4.17;;
5880;SDS011;2966;52.598;10.928;2022-08-02T02:28:11;4.37;;;3.97;;
5880;SDS011;2966;52.598;10.928;2022-08-02T02:30:41;4.80;;;4.10;;
5880;SDS011;2966;52.598;10.928;2022-08-02T02:33:11;6.13;;;4.13;;
5880;SDS011;2966;52.598;10.928;2022-08-02T02:35:43;3.93;;;3.63;;
5880;SDS011;2966;52.598;10.928;2022-08-02T02:38:16;13.93;;;4.03;;
5880;SDS011;2966;52.598;10.928;2022-08-02T02:40:45;5.47;;;3.53;;
5880;SDS011;2966;52.598;10.928;2022-08-02T02:43:13;7.23;;;3.30;;
5880;SDS011;2966;52.598;10.928;2022-08-02T02:45:41;4.83;;;3.60;;
5880;SDS011;2966;52.598;10.928;2022-08-02T02:48:09;3.87;;;3.57;;
5880;SDS011;2966;52.598;10.928;2022-08-02T02:50:37;4.23;;;3.00;;
5880;SDS011;2966;52.598;10.928;2022-08-02T02:53:07;3.93;;;3.20;;
5880;SDS011;2966;52.598;10.928;2022-08-02T02:55:35;3.97;;;3.57;;
5880;SDS011;2966;52.598;10.928;2022-08-02T02:58:03;4.33;;;3.90;;
5880;SDS011;2966;52.598;10.928;2022-08-02T03:00:30;10.47;;;4.07;;
5880;SDS011;2966;52.598;10.928;2022-08-02T03:03:15;4.37;;;3.50;;
5880;SDS011;2966;52.598;10.928;2022-08-02T03:05:42;5.33;;;3.93;;
5880;SDS011;2966;52.598;10.928;2022-08-02T03:08:11;5.67;;;3.47;;
5880;SDS011;2966;52.598;10.928;2022-08-02T03:10:38;4.20;;;3.10;;
5880;SDS011;2966;52.598;10.928;2022-08-02T03:13:05;5.10;;;3.53;;
5880;SDS011;2966;52.598;10.928;2022-08-02T03:15:32;4.07;;;3.23;;
5880;SDS011;2966;52.598;10.928;2022-08-02T03:18:01;4.90;;;3.40;;
5880;SDS011;2966;52.598;10.928;2022-08-02T03:20:28;4.57;;;4.00;;
5880;SDS011;2966;52.598;10.928;2022-08-02T03:22:55;4.57;;;3.40;;
5880;SDS011;2966;52.598;10.928;2022-08-02T03:25:23;3.20;;;2.90;;
5880;SDS011;2966;52.598;10.928;2022-08-02T03:27:50;3.87;;;2.63;;
5880;SDS011;2966;52.598;10.928;2022-08-02T03:30:16;6.50;;;3.53;;
5880;SDS011;2966;52.598;10.928;2022-08-02T03:32:44;3.23;;;2.93;;
5880;SDS011;2966;52.598;10.928;2022-08-02T03:35:14;6.03;;;4.03;;
5880;SDS011;2966;52.598;10.928;2022-08-02T03:37:42;6.23;;;4.50;;
5880;SDS011;2966;52.598;10.928;2022-08-02T03:40:09;7.00;;;3.60;;
5880;SDS011;2966;52.598;10.928;2022-08-02T03:42:39;7.73;;;3.90;;
5880;SDS011;2966;52.598;10.928;2022-08-02T03:45:07;7.90;;;3.60;;
5880;SDS011;2966;52.598;10.928;2022-08-02T03:47:36;6.47;;;3.90;;
5880;SDS011;2966;52.598;10.928;2022-08-02T03:50:04;5.03;;;3.73;;
5880;SDS011;2966;52.598;10.928;2022-08-02T03:52:31;3.97;;;3.60;;
5880;SDS011;2966;52.598;10.928;2022-08-02T03:54:58;4.07;;;3.33;;
5880;SDS011;2966;52.598;10.928;2022-08-02T03:57:25;5.00;;;3.70;;
5880;SDS011;2966;52.598;10.928;2022-08-02T03:59:53;7.10;;;4.13;;
5880;SDS011;2966;52.598;10.928;2022-08-02T04:02:20;7.50;;;4.23;;
5880;SDS011;2966;52.598;10.928;2022-08-02T04:04:47;5.00;;;4.03;;
5880;SDS011;2966;52.598;10.928;2022-08-02T04:07:13;5.40;;;4.07;;
5880;SDS011;2966;52.598;10.928;2022-08-02T04:09:40;4.07;;;3.60;;
5880;SDS011;2966;52.598;10.928;2022-08-02T04:12:07;5.17;;;3.70;;
5880;SDS011;2966;52.598;10.928;2022-08-02T04:14:34;15.03;;;4.70;;
5880;SDS011;2966;52.598;10.928;2022-08-02T04:17:03;5.30;;;4.67;;
5880;SDS011;2966;52.598;10.928;2022-08-02T04:19:35;10.57;;;5.80;;
5880;SDS011;2966;52.598;10.928;2022-08-02T04:22:05;18.03;;;6.57;;
5880;SDS011;2966;52.598;10.928;2022-08-02T04:24:35;5.10;;;4.37;;
5880;SDS011;2966;52.598;10.928;2022-08-02T04:27:04;5.60;;;5.03;;
5880;SDS011;2966;52.598;10.928;2022-08-02T04:29:33;5.57;;;4.60;;
5880;SDS011;2966;52.598;10.928;2022-08-02T04:32:03;8.90;;;4.60;;
5880;SDS011;2966;52.598;10.928;2022-08-02T04:34:31;5.87;;;5.00;;
5880;SDS011;2966;52.598;10.928;2022-08-02T04:36:59;5.80;;;4.83;;
5880;SDS011;2966;52.598;10.928;2022-08-02T04:39:26;4.83;;;4.47;;
5880;SDS011;2966;52.598;10.928;2022-08-02T04:41:52;12.90;;;5.17;;
5880;SDS011;2966;52.598;10.928;2022-08-02T04:44:19;5.80;;;4.90;;
5880;SDS011;2966;52.598;10.928;2022-08-02T04:46:46;9.13;;;5.60;;
5880;SDS011;2966;52.598;10.928;2022-08-02T04:49:14;13.20;;;5.10;;
5880;SDS011;2966;52.598;10.928;2022-08-02T04:51:41;4.90;;;4.50;;
5880;SDS011;2966;52.598;10.928;2022-08-02T04:54:09;7.27;;;4.57;;
5880;SDS011;2966;52.598;10.928;2022-08-02T04:56:36;9.37;;;6.33;;
5880;SDS011;2966;52.598;10.928;2022-08-02T04:59:03;8.20;;;6.67;;
5880;SDS011;2966;52.598;10.928;2022-08-02T05:01:31;14.47;;;8.70;;
5880;SDS011;2966;52.598;10.928;2022-08-02T05:03:58;9.63;;;6.07;;
5880;SDS011;2966;52.598;10.928;2022-08-02T05:06:26;10.63;;;5.47;;
5880;SDS011;2966;52.598;10.928;2022-08-02T05:08:53;7.90;;;5.90;;
5880;SDS011;2966;52.598;10.928;2022-08-02T05:11:20;7.07;;;5.37;;
5880;SDS011;2966;52.598;10.928;2022-08-02T05:13:47;7.23;;;5.33;;
5880;SDS011;2966;52.598;10.928;2022-08-02T05:16:13;7.97;;;5.80;;
5880;SDS011;2966;52.598;10.928;2022-08-02T05:18:40;6.90;;;4.50;;
5880;SDS011;2966;52.598;10.928;2022-08-02T05:21:07;7.87;;;4.73;;
5880;SDS011;2966;52.598;10.928;2022-08-02T05:23:35;5.83;;;5.23;;
5880;SDS011;2966;52.598;10.928;2022-08-02T05:26:02;8.23;;;4.40;;
5880;SDS011;2966;52.598;10.928;2022-08-02T05:28:29;7.27;;;4.53;;
5880;SDS011;2966;52.598;10.928;2022-08-02T05:30:56;4.87;;;4.27;;
5880;SDS011;2966;52.598;10.928;2022-08-02T05:33:22;5.83;;;4.83;;
5880;SDS011;2966;52.598;10.928;2022-08-02T05:35:49;11.90;;;5.23;;
5880;SDS011;2966;52.598;10.928;2022-08-02T05:38:15;13.03;;;4.60;;
5880;SDS011;2966;52.598;10.928;2022-08-02T05:40:44;7.83;;;4.87;;
5880;SDS011;2966;52.598;10.928;2022-08-02T05:43:11;8.73;;;5.00;;
5880;SDS011;2966;52.598;10.928;2022-08-02T05:45:38;8.17;;;5.17;;
5880;SDS011;2966;52.598;10.928;2022-08-02T05:48:05;13.90;;;5.90;;
5880;SDS011;2966;52.598;10.928;2022-08-02T05:50:33;7.60;;;6.00;;
5880;SDS011;2966;52.598;10.928;2022-08-02T05:53:03;8.80;;;6.40;;
5880;SDS011;2966;52.598;10.928;2022-08-02T05:55:39;5.93;;;4.23;;
5880;SDS011;2966;52.598;10.928;2022-08-02T05:58:19;6.63;;;3.80;;
5880;SDS011;2966;52.598;10.928;2022-08-02T06:00:52;5.10;;;3.73;;
5880;SDS011;2966;52.598;10.928;2022-08-02T06:03:23;4.40;;;2.90;;
5880;SDS011;2966;52.598;10.928;2022-08-02T06:05:57;7.80;;;3.17;;
5880;SDS011;2966;52.598;10.928;2022-08-02T06:08:27;7.83;;;3.93;;
5880;SDS011;2966;52.598;10.928;2022-08-02T06:11:04;8.60;;;3.47;;
5880;SDS011;2966;52.598;10.928;2022-08-02T06:13:35;7.50;;;2.63;;
5880;SDS011;2966;52.598;10.928;2022-08-02T06:16:03;5.90;;;2.77;;
5880;SDS011;2966;52.598;10.928;2022-08-02T06:18:31;3.10;;;2.50;;
5880;SDS011;2966;52.598;10.928;2022-08-02T06:21:00;8.33;;;2.80;;
5880;SDS011;2966;52.598;10.928;2022-08-02T06:23:28;5.60;;;2.93;;
5880;SDS011;2966;52.598;10.928;2022-08-02T06:25:55;2.70;;;2.50;;
5880;SDS011;2966;52.598;10.928;2022-08-02T06:28:23;4.20;;;2.30;;
5880;SDS011;2966;52.598;10.928;2022-08-02T06:30:52;3.20;;;2.00;;
5880;SDS011;2966;52.598;10.928;2022-08-02T06:33:19;5.27;;;2.47;;
5880;SDS011;2966;52.598;10.928;2022-08-02T06:35:55;7.53;;;2.70;;
5880;SDS011;2966;52.598;10.928;2022-08-02T06:38:27;4.13;;;2.60;;
5880;SDS011;2966;52.598;10.928;2022-08-02T06:41:00;5.93;;;2.87;;
5880;SDS011;2966;52.598;10.928;2022-08-02T06:43:34;7.83;;;2.80;;
5880;SDS011;2966;52.598;10.928;2022-08-02T06:46:10;3.20;;;2.33;;
5880;SDS011;2966;52.598;10.928;2022-08-02T06:48:37;4.57;;;2.43;;
5880;SDS011;2966;52.598;10.928;2022-08-02T06:51:04;7.60;;;3.23;;
5880;SDS011;2966;52.598;10.928;2022-08-02T06:53:31;12.83;;;2.60;;
5880;SDS011;2966;52.598;10.928;2022-08-02T06:55:58;4.07;;;2.27;;
5880;SDS011;2966;52.598;10.928;2022-08-02T06:58:24;5.50;;;2.70;;
5880;SDS011;2966;52.598;10.928;2022-08-02T07:00:53;4.50;;;2.53;;
5880;SDS011;2966;52.598;10.928;2022-08-02T07:03:21;8.10;;;3.70;;
5880;SDS011;2966;52.598;10.928;2022-08-02T07:05:49;5.57;;;3.17;;
5880;SDS011;2966;52.598;10.928;2022-08-02T07:08:16;7.17;;;3.50;;
5880;SDS011;2966;52.598;10.928;2022-08-02T07:10:46;4.50;;;3.43;;
5880;SDS011;2966;52.598;10.928;2022-08-02T07:13:13;4.00;;;3.30;;
5880;SDS011;2966;52.598;10.928;2022-08-02T07:15:40;6.47;;;3.27;;
5880;SDS011;2966;52.598;10.928;2022-08-02T07:18:07;5.20;;;3.17;;
5880;SDS011;2966;52.598;10.928;2022-08-02T07:20:40;9.13;;;3.53;;
5880;SDS011;2966;52.598;10.928;2022-08-02T07:23:06;11.57;;;3.13;;
5880;SDS011;2966;52.598;10.928;2022-08-02T07:25:33;7.33;;;3.13;;
5880;SDS011;2966;52.598;10.928;2022-08-02T07:28:00;7.97;;;2.80;;
5880;SDS011;2966;52.598;10.928;2022-08-02T07:30:27;4.33;;;3.43;;
5880;SDS011;2966;52.598;10.928;2022-08-02T07:32:54;15.93;;;2.93;;
5880;SDS011;2966;52.598;10.928;2022-08-02T07:35:21;5.47;;;2.40;;
5880;SDS011;2966;52.598;10.928;2022-08-02T07:37:49;5.87;;;4.10;;
5880;SDS011;2966;52.598;10.928;2022-08-02T07:40:16;7.63;;;4.00;;
5880;SDS011;2966;52.598;10.928;2022-08-02T07:42:46;6.20;;;5.10;;
5880;SDS011;2966;52.598;10.928;2022-08-02T07:45:14;9.90;;;5.87;;
5880;SDS011;2966;52.598;10.928;2022-08-02T07:47:41;2.97;;;2.60;;
5880;SDS011;2966;52.598;10.928;2022-08-02T07:50:09;6.33;;;2.40;;
5880;SDS011;2966;52.598;10.928;2022-08-02T07:52:36;3.53;;;2.50;;
5880;SDS011;2966;52.598;10.928;2022-08-02T07:55:05;4.43;;;2.40;;
5880;SDS011;2966;52.598;10.928;2022-08-02T07:57:33;5.00;;;1.93;;
5880;SDS011;2966;52.598;10.928;2022-08-02T08:00:00;3.47;;;2.60;;
5880;SDS011;2966;52.598;10.928;2022-08-02T08:02:28;4.60;;;2.20;;
5880;SDS011;2966;52.598;10.928;2022-08-02T08:04:54;5.33;;;2.27;;
5880;SDS011;2966;52.598;10.928;2022-08-02T08:07:21;8.33;;;3.30;;
5880;SDS011;2966;52.598;10.928;2022-08-02T08:09:49;5.70;;;2.80;;
5880;SDS011;2966;52.598;10.928;2022-08-02T08:12:18;5.60;;;2.60;;
5880;SDS011;2966;52.598;10.928;2022-08-02T08:14:49;5.77;;;2.40;;
5880;SDS011;2966;52.598;10.928;2022-08-02T08:17:15;2.63;;;2.43;;
5880;SDS011;2966;52.598;10.928;2022-08-02T08:19:42;7.43;;;3.30;;
5880;SDS011;2966;52.598;10.928;2022-08-02T08:22:09;7.30;;;2.70;;
5880;SDS011;2966;52.598;10.928;2022-08-02T08:24:35;6.10;;;2.57;;
5880;SDS011;2966;52.598;10.928;2022-08-02T08:27:03;2.73;;;2.53;;
5880;SDS011;2966;52.598;10.928;2022-08-02T08:29:36;2.50;;;2.27;;
5880;SDS011;2966;52.598;10.928;2022-08-02T08:32:02;4.10;;;2.43;;
5880;SDS011;2966;52.598;10.928;2022-08-02T08:34:30;27.23;;;3.60;;
5880;SDS011;2966;52.598;10.928;2022-08-02T08:36:58;8.37;;;3.10;;
5880;SDS011;2966;52.598;10.928;2022-08-02T08:39:26;5.83;;;3.70;;
5880;SDS011;2966;52.598;10.928;2022-08-02T08:41:53;4.63;;;3.53;;
5880;SDS011;2966;52.598;10.928;2022-08-02T08:44:19;8.60;;;4.53;;
5880;SDS011;2966;52.598;10.928;2022-08-02T08:46:48;7.60;;;4.37;;
5880;SDS011;2966;52.598;10.928;2022-08-02T08:49:17;11.43;;;4.70;;
5880;SDS011;2966;52.598;10.928;2022-08-02T08:51:48;7.37;;;4.07;;
5880;SDS011;2966;52.598;10.928;2022-08-02T08:54:19;3.57;;;3.27;;
5880;SDS011;2966;52.598;10.928;2022-08-02T08:56:49;5.83;;;4.10;;
5880;SDS011;2966;52.598;10.928;2022-08-02T08:59:17;4.27;;;3.73;;
5880;SDS011;2966;52.598;10.928;2022-08-02T09:01:44;12.20;;;3.50;;
5880;SDS011;2966;52.598;10.928;2022-08-02T09:04:12;9.03;;;3.77;;
5880;SDS011;2966;52.598;10.928;2022-08-02T09:06:39;4.83;;;4.27;;
5880;SDS011;2966;52.598;10.928;2022-08-02T09:09:06;3.20;;;2.77;;
5880;SDS011;2966;52.598;10.928;2022-08-02T09:11:33;3.97;;;3.67;;
5880;SDS011;2966;52.598;10.928;2022-08-02T09:14:00;9.47;;;4.00;;
5880;SDS011;2966;52.598;10.928;2022-08-02T09:16:30;7.07;;;4.10;;
5880;SDS011;2966;52.598;10.928;2022-08-02T09:18:58;5.80;;;4.23;;
5880;SDS011;2966;52.598;10.928;2022-08-02T09:21:35;8.40;;;4.80;;
5880;SDS011;2966;52.598;10.928;2022-08-02T09:24:12;4.47;;;3.97;;
5880;SDS011;2966;52.598;10.928;2022-08-02T09:26:42;3.70;;;3.40;;
5880;SDS011;2966;52.598;10.928;2022-08-02T09:29:08;6.13;;;3.40;;
5880;SDS011;2966;52.598;10.928;2022-08-02T09:31:35;4.70;;;3.37;;
5880;SDS011;2966;52.598;10.928;2022-08-02T09:34:03;12.53;;;6.33;;
5880;SDS011;2966;52.598;10.928;2022-08-02T09:36:37;5.17;;;2.83;;
5880;SDS011;2966;52.598;10.928;2022-08-02T09:39:06;3.40;;;3.10;;
5880;SDS011;2966;52.598;10.928;2022-08-02T09:41:34;6.60;;;3.83;;
5880;SDS011;2966;52.598;10.928;2022-08-02T09:44:05;7.90;;;3.80;;
5880;SDS011;2966;52.598;10.928;2022-08-02T09:46:34;3.67;;;3.37;;
5880;SDS011;2966;52.598;10.928;2022-08-02T09:49:03;4.00;;;3.17;;
5880;SDS011;2966;52.598;10.928;2022-08-02T09:51:32;3.43;;;3.23;;
5880;SDS011;2966;52.598;10.928;2022-08-02T09:54:04;3.50;;;3.20;;
5880;SDS011;2966;52.598;10.928;2022-08-02T09:56:39;4.23;;;3.93;;
5880;SDS011;2966;52.598;10.928;2022-08-02T09:59:07;4.77;;;4.10;;
5880;SDS011;2966;52.598;10.928;2022-08-02T10:01:35;7.17;;;4.00;;
5880;SDS011;2966;52.598;10.928;2022-08-02T10:04:04;7.63;;;4.03;;
5880;SDS011;2966;52.598;10.928;2022-08-02T10:06:34;3.87;;;3.20;;
5880;SDS011;2966;52.598;10.928;2022-08-02T10:09:02;3.50;;;3.20;;
5880;SDS011;2966;52.598;10.928;2022-08-02T10:11:31;7.30;;;3.90;;
5880;SDS011;2966;52.598;10.928;2022-08-02T10:13:59;5.40;;;4.20;;
5880;SDS011;2966;52.598;10.928;2022-08-02T10:16:30;4.30;;;3.73;;
5880;SDS011;2966;52.598;10.928;2022-08-02T10:18:59;5.83;;;4.27;;
5880;SDS011;2966;52.598;10.928;2022-08-02T10:21:30;5.23;;;4.20;;
5880;SDS011;2966;52.598;10.928;2022-08-02T10:24:05;3.50;;;3.20;;
5880;SDS011;2966;52.598;10.928;2022-08-02T10:26:34;3.80;;;3.40;;
5880;SDS011;2966;52.598;10.928;2022-08-02T10:29:03;5.23;;;4.00;;
5880;SDS011;2966;52.598;10.928;2022-08-02T10:31:32;3.43;;;3.13;;
5880;SDS011;2966;52.598;10.928;2022-08-02T10:34:03;5.43;;;3.77;;
5880;SDS011;2966;52.598;10.928;2022-08-02T10:36:34;8.77;;;3.30;;
5880;SDS011;2966;52.598;10.928;2022-08-02T10:39:05;4.93;;;4.43;;
5880;SDS011;2966;52.598;10.928;2022-08-02T10:41:42;3.87;;;3.60;;
5880;SDS011;2966;52.598;10.928;2022-08-02T10:44:20;5.40;;;3.67;;
5880;SDS011;2966;52.598;10.928;2022-08-02T10:46:49;4.07;;;3.20;;
5880;SDS011;2966;52.598;10.928;2022-08-02T10:49:16;4.20;;;3.57;;
5880;SDS011;2966;52.598;10.928;2022-08-02T10:51:54;3.30;;;3.10;;
5880;SDS011;2966;52.598;10.928;2022-08-02T10:54:33;4.03;;;3.30;;
5880;SDS011;2966;52.598;10.928;2022-08-02T10:57:02;7.10;;;4.10;;
5880;SDS011;2966;52.598;10.928;2022-08-02T10:59:44;3.43;;;3.13;;
5880;SDS011;2966;52.598;10.928;2022-08-02T11:02:12;5.93;;;3.07;;
5880;SDS011;2966;52.598;10.928;2022-08-02T11:07:33;3.33;;;3.03;;
5880;SDS011;2966;52.598;10.928;2022-08-02T11:13:03;5.80;;;3.90;;
5880;SDS011;2966;52.598;10.928;2022-08-02T11:15:45;4.00;;;3.70;;
5880;SDS011;2966;52.598;10.928;2022-08-02T11:18:14;3.57;;;3.27;;
5880;SDS011;2966;52.598;10.928;2022-08-02T11:20:41;3.07;;;2.87;;
5880;SDS011;2966;52.598;10.928;2022-08-02T11:26:10;5.77;;;3.33;;
5880;SDS011;2966;52.598;10.928;2022-08-02T11:29:15;8.10;;;3.83;;
5880;SDS011;2966;52.598;10.928;2022-08-02T11:31:43;4.03;;;3.73;;
5880;SDS011;2966;52.598;10.928;2022-08-02T11:34:10;3.70;;;3.40;;
5880;SDS011;2966;52.598;10.928;2022-08-02T11:36:43;6.47;;;4.03;;
5880;SDS011;2966;52.598;10.928;2022-08-02T11:39:11;4.10;;;3.80;;
5880;SDS011;2966;52.598;10.928;2022-08-02T11:41:42;6.00;;;3.60;;
5880;SDS011;2966;52.598;10.928;2022-08-02T11:44:13;3.53;;;3.23;;
5880;SDS011;2966;52.598;10.928;2022-08-02T11:46:40;7.30;;;3.80;;
5880;SDS011;2966;52.598;10.928;2022-08-02T11:49:10;6.10;;;3.33;;
5880;SDS011;2966;52.598;10.928;2022-08-02T11:51:39;6.53;;;3.63;;
5880;SDS011;2966;52.598;10.928;2022-08-02T11:54:21;3.67;;;3.37;;
5880;SDS011;2966;52.598;10.928;2022-08-02T11:56:50;3.67;;;3.23;;
5880;SDS011;2966;52.598;10.928;2022-08-02T11:59:17;5.83;;;3.67;;
5880;SDS011;2966;52.598;10.928;2022-08-02T12:01:46;4.30;;;3.90;;
5880;SDS011;2966;52.598;10.928;2022-08-02T12:04:19;3.67;;;3.37;;
5880;SDS011;2966;52.598;10.928;2022-08-02T12:06:56;3.57;;;3.27;;
5880;SDS011;2966;52.598;10.928;2022-08-02T12:09:24;4.93;;;3.30;;
5880;SDS011;2966;52.598;10.928;2022-08-02T12:11:53;3.53;;;3.20;;
5880;SDS011;2966;52.598;10.928;2022-08-02T12:14:21;5.90;;;2.57;;
5880;SDS011;2966;52.598;10.928;2022-08-02T12:16:51;3.63;;;2.93;;
5880;SDS011;2966;52.598;10.928;2022-08-02T12:19:36;3.77;;;2.63;;
5880;SDS011;2966;52.598;10.928;2022-08-02T12:22:10;3.03;;;2.57;;
5880;SDS011;2966;52.598;10.928;2022-08-02T12:24:40;4.13;;;3.00;;
5880;SDS011;2966;52.598;10.928;2022-08-02T12:27:09;2.90;;;2.70;;
5880;SDS011;2966;52.598;10.928;2022-08-02T12:29:56;6.67;;;3.63;;
5880;SDS011;2966;52.598;10.928;2022-08-02T12:32:24;3.80;;;3.50;;
5880;SDS011;2966;52.598;10.928;2022-08-02T12:34:59;4.00;;;3.00;;
5880;SDS011;2966;52.598;10.928;2022-08-02T12:37:27;3.27;;;3.07;;
5880;SDS011;2966;52.598;10.928;2022-08-02T12:39:54;4.43;;;3.60;;
5880;SDS011;2966;52.598;10.928;2022-08-02T12:42:22;4.27;;;3.50;;
5880;SDS011;2966;52.598;10.928;2022-08-02T12:44:51;5.23;;;4.00;;
5880;SDS011;2966;52.598;10.928;2022-08-02T12:47:18;6.63;;;4.00;;
5880;SDS011;2966;52.598;10.928;2022-08-02T12:49:46;3.37;;;3.00;;
5880;SDS011;2966;52.598;10.928;2022-08-02T12:52:17;4.40;;;3.90;;
5880;SDS011;2966;52.598;10.928;2022-08-02T12:54:45;6.63;;;3.40;;
5880;SDS011;2966;52.598;10.928;2022-08-02T12:57:13;4.57;;;4.17;;
5880;SDS011;2966;52.598;10.928;2022-08-02T12:59:48;4.80;;;3.80;;
5880;SDS011;2966;52.598;10.928;2022-08-02T13:02:16;3.60;;;3.30;;
5880;SDS011;2966;52.598;10.928;2022-08-02T13:04:44;7.60;;;3.47;;
5880;SDS011;2966;52.598;10.928;2022-08-02T13:07:11;3.60;;;3.30;;
5880;SDS011;2966;52.598;10.928;2022-08-02T13:09:38;4.37;;;4.03;;
5880;SDS011;2966;52.598;10.928;2022-08-02T13:12:06;4.37;;;3.83;;
5880;SDS011;2966;52.598;10.928;2022-08-02T13:14:33;3.80;;;3.47;;
5880;SDS011;2966;52.598;10.928;2022-08-02T13:17:01;6.37;;;4.90;;
5880;SDS011;2966;52.598;10.928;2022-08-02T13:19:28;4.57;;;4.13;;
5880;SDS011;2966;52.598;10.928;2022-08-02T13:21:55;8.70;;;3.87;;
5880;SDS011;2966;52.598;10.928;2022-08-02T13:24:21;4.00;;;3.80;;
5880;SDS011;2966;52.598;10.928;2022-08-02T13:26:48;7.50;;;4.07;;
5880;SDS011;2966;52.598;10.928;2022-08-02T13:29:15;3.10;;;2.80;;
5880;SDS011;2966;52.598;10.928;2022-08-02T13:31:42;3.47;;;3.27;;
5880;SDS011;2966;52.598;10.928;2022-08-02T13:34:10;5.70;;;4.00;;
5880;SDS011;2966;52.598;10.928;2022-08-02T13:36:36;4.10;;;3.80;;
5880;SDS011;2966;52.598;10.928;2022-08-02T13:39:05;3.73;;;3.43;;
5880;SDS011;2966;52.598;10.928;2022-08-02T13:41:33;3.77;;;3.43;;
5880;SDS011;2966;52.598;10.928;2022-08-02T13:43:59;3.40;;;3.20;;
5880;SDS011;2966;52.598;10.928;2022-08-02T13:46:26;4.83;;;3.07;;
5880;SDS011;2966;52.598;10.928;2022-08-02T13:48:53;6.50;;;3.70;;
5880;SDS011;2966;52.598;10.928;2022-08-02T13:51:21;3.90;;;3.60;;
5880;SDS011;2966;52.598;10.928;2022-08-02T13:53:47;3.43;;;3.23;;
5880;SDS011;2966;52.598;10.928;2022-08-02T13:56:14;3.53;;;3.23;;
5880;SDS011;2966;52.598;10.928;2022-08-02T13:58:41;3.37;;;3.10;;
5880;SDS011;2966;52.598;10.928;2022-08-02T14:01:07;2.90;;;2.70;;
5880;SDS011;2966;52.598;10.928;2022-08-02T14:03:35;3.43;;;3.23;;
5880;SDS011;2966;52.598;10.928;2022-08-02T14:06:03;6.10;;;3.13;;
5880;SDS011;2966;52.598;10.928;2022-08-02T14:08:32;4.40;;;3.43;;
5880;SDS011;2966;52.598;10.928;2022-08-02T14:10:58;3.37;;;3.10;;
5880;SDS011;2966;52.598;10.928;2022-08-02T14:13:28;3.47;;;3.27;;
5880;SDS011;2966;52.598;10.928;2022-08-02T14:15:55;9.73;;;4.10;;
5880;SDS011;2966;52.598;10.928;2022-08-02T14:18:23;3.70;;;3.40;;
5880;SDS011;2966;52.598;10.928;2022-08-02T14:20:50;4.03;;;3.30;;
5880;SDS011;2966;52.598;10.928;2022-08-02T14:23:17;3.57;;;3.10;;
5880;SDS011;2966;52.598;10.928;2022-08-02T14:25:45;4.37;;;2.90;;
5880;SDS011;2966;52.598;10.928;2022-08-02T14:28:11;2.77;;;2.57;;
5880;SDS011;2966;52.598;10.928;2022-08-02T14:30:38;3.13;;;2.93;;
5880;SDS011;2966;52.598;10.928;2022-08-02T14:33:07;3.30;;;3.10;;
5880;SDS011;2966;52.598;10.928;2022-08-02T14:35:34;4.20;;;3.80;;
5880;SDS011;2966;52.598;10.928;2022-08-02T14:38:01;4.53;;;4.03;;
5880;SDS011;2966;52.598;10.928;2022-08-02T14:40:28;4.13;;;3.63;;
5880;SDS011;2966;52.598;10.928;2022-08-02T14:42:56;3.60;;;3.30;;
5880;SDS011;2966;52.598;10.928;2022-08-02T14:45:23;3.67;;;3.37;;
5880;SDS011;2966;52.598;10.928;2022-08-02T14:47:52;3.90;;;3.60;;
5880;SDS011;2966;52.598;10.928;2022-08-02T14:50:19;3.80;;;3.43;;
5880;SDS011;2966;52.598;10.928;2022-08-02T14:52:46;4.57;;;3.47;;
5880;SDS011;2966;52.598;10.928;2022-08-02T14:55:14;3.27;;;2.97;;
5880;SDS011;2966;52.598;10.928;2022-08-02T14:57:41;3.43;;;3.13;;
5880;SDS011;2966;52.598;10.928;2022-08-02T15:00:10;3.13;;;2.93;;
5880;SDS011;2966;52.598;10.928;2022-08-02T15:02:37;3.20;;;3.00;;
5880;SDS011;2966;52.598;10.928;2022-08-02T15:05:04;4.00;;;3.23;;
5880;SDS011;2966;52.598;10.928;2022-08-02T15:07:31;4.37;;;3.40;;
5880;SDS011;2966;52.598;10.928;2022-08-02T15:09:58;2.80;;;2.60;;
5880;SDS011;2966;52.598;10.928;2022-08-02T15:12:24;2.60;;;2.40;;
5880;SDS011;2966;52.598;10.928;2022-08-02T15:14:51;3.67;;;2.90;;
5880;SDS011;2966;52.598;10.928;2022-08-02T15:17:19;3.10;;;2.77;;
5880;SDS011;2966;52.598;10.928;2022-08-02T15:19:48;3.90;;;3.37;;